createdAt,value
2018-12-03T00:02:01.317Z,99.90
2018-12-03T00:06:59.079Z,99.90
2018-12-03T00:09:28.065Z,99.90
2018-12-03T00:11:57.004Z,99.90
2018-12-03T00:14:25.971Z,99.90
2018-12-03T00:16:54.993Z,99.90
2018-12-03T00:19:23.969Z,99.90
2018-12-03T00:21:52.983Z,99.90
2018-12-03T00:24:22.056Z,99.90
2018-12-03T00:26:51.068Z,99.90
2018-12-03T00:29:20.074Z,99.90
2018-12-03T00:34:17.651Z,99.90
2018-12-03T00:36:46.628Z,99.90
2018-12-03T00:39:15.654Z,99.90
2018-12-03T00:46:41.843Z,99.90
2018-12-03T00:49:10.986Z,99.90
2018-12-03T00:51:39.956Z,99.90
2018-12-03T00:54:08.973Z,99.90
2018-12-03T00:56:37.963Z,99.90
2018-12-03T00:59:06.934Z,99.90
2018-12-03T01:04:05.718Z,99.90
2018-12-03T01:06:48.799Z,99.90
2018-12-03T01:09:17.805Z,99.90
2018-12-03T01:11:46.806Z,99.90
2018-12-03T01:14:15.840Z,99.90
2018-12-03T01:16:44.927Z,99.90
2018-12-03T01:19:14.010Z,99.90
2018-12-03T01:24:11.577Z,99.90
2018-12-03T01:26:40.557Z,99.90
2018-12-03T01:29:09.547Z,99.90
2018-12-03T01:36:35.730Z,99.90
2018-12-03T01:39:07.075Z,99.90
2018-12-03T01:46:34.254Z,99.90
2018-12-03T01:49:03.226Z,99.90
2018-12-03T01:51:32.204Z,99.90
2018-12-03T01:56:29.845Z,99.90
2018-12-03T01:58:58.813Z,99.90
2018-12-03T02:01:27.774Z,99.90
2018-12-03T02:06:25.384Z,99.90
2018-12-03T02:08:54.415Z,99.90
2018-12-03T02:11:23.378Z,99.90
2018-12-03T02:16:21.281Z,99.90
2018-12-03T02:18:50.270Z,99.90
2018-12-03T02:21:19.323Z,99.90
2018-12-03T02:23:48.427Z,99.90
2018-12-03T02:26:17.369Z,99.90
2018-12-03T02:28:46.357Z,99.90
2018-12-03T02:31:15.329Z,99.90
2018-12-03T02:36:12.888Z,99.90
2018-12-03T02:41:10.411Z,99.90
2018-12-03T02:43:39.351Z,99.90
2018-12-03T02:46:08.343Z,99.90
2018-12-03T02:48:37.365Z,99.90
2018-12-03T02:51:06.392Z,99.90
2018-12-03T02:56:04.035Z,99.90
2018-12-03T02:58:33.077Z,99.90
2018-12-03T03:01:02.071Z,99.90
2018-12-03T03:05:59.625Z,99.90
2018-12-03T03:08:28.578Z,99.90
2018-12-03T03:10:57.619Z,99.90
2018-12-03T03:13:26.622Z,99.90
2018-12-03T03:15:55.542Z,99.90
2018-12-03T03:18:24.461Z,99.90
2018-12-03T03:20:53.559Z,99.90
2018-12-03T03:25:51.237Z,99.90
2018-12-03T03:28:20.239Z,99.90
2018-12-03T03:33:17.882Z,99.90
2018-12-03T03:38:15.506Z,99.90
2018-12-03T03:40:44.629Z,99.90
2018-12-03T03:43:13.622Z,99.90
2018-12-03T03:45:42.570Z,99.90
2018-12-03T03:48:11.617Z,99.90
2018-12-03T03:50:40.658Z,99.90
2018-12-03T03:53:09.654Z,99.90
2018-12-03T03:55:38.596Z,99.90
2018-12-03T03:58:07.587Z,99.90
2018-12-03T04:03:05.313Z,99.90
2018-12-03T04:05:34.371Z,99.90
2018-12-03T04:08:03.374Z,99.90
2018-12-03T04:10:32.337Z,99.90
2018-12-03T04:17:58.462Z,99.90
2018-12-03T04:20:27.454Z,99.90
2018-12-03T04:22:56.462Z,99.90
2018-12-03T04:25:25.778Z,99.90
2018-12-03T04:27:54.863Z,99.90
2018-12-03T04:30:23.908Z,99.90
2018-12-03T04:32:53.690Z,99.90
2018-12-03T04:35:23.920Z,99.90
2018-12-03T04:37:53.099Z,99.90
2018-12-03T04:40:22.262Z,99.90
2018-12-03T04:45:21.040Z,99.90
2018-12-03T04:47:50.562Z,99.90
2018-12-03T04:50:21.410Z,99.90
2018-12-03T04:55:19.960Z,99.90
2018-12-03T04:57:49.129Z,99.90
2018-12-03T05:00:20.000Z,99.90
2018-12-03T05:05:19.316Z,99.90
2018-12-03T05:07:48.296Z,99.90
2018-12-03T05:10:18.265Z,99.90
2018-12-03T05:12:48.498Z,99.90
2018-12-03T05:15:17.525Z,99.90
2018-12-03T05:17:46.477Z,99.90
2018-12-03T05:25:18.924Z,99.90
2018-12-03T05:32:41.845Z,99.90
2018-12-03T05:42:40.294Z,99.90
2018-12-03T05:47:38.368Z,99.90
2018-12-03T05:52:39.434Z,99.90
2018-12-03T05:57:37.814Z,99.90
2018-12-03T06:00:10.576Z,99.90
2018-12-03T06:02:39.606Z,99.90
2018-12-03T06:05:09.662Z,99.90
2018-12-03T06:07:38.653Z,99.90
2018-12-03T06:10:12.324Z,99.90
2018-12-03T06:12:41.402Z,99.90
2018-12-03T06:15:15.496Z,99.90
2018-12-03T06:17:44.656Z,99.90
2018-12-03T06:20:16.526Z,99.90
2018-12-03T06:22:46.025Z,99.90
2018-12-03T06:25:17.342Z,99.90
2018-12-03T06:27:46.337Z,99.90
2018-12-03T06:30:16.592Z,99.90
2018-12-03T06:32:45.704Z,99.90
2018-12-03T06:35:15.430Z,99.90
2018-12-03T06:40:15.285Z,99.90
2018-12-03T06:42:44.422Z,99.90
2018-12-03T06:50:13.021Z,99.90
2018-12-03T06:52:42.130Z,99.90
2018-12-03T06:57:40.066Z,99.90
2018-12-03T07:05:10.207Z,99.90
2018-12-03T07:07:39.526Z,99.90
2018-12-03T07:10:13.421Z,99.90
2018-12-03T07:12:42.727Z,99.90
2018-12-03T07:15:14.385Z,99.90
2018-12-03T07:17:43.440Z,99.90
2018-12-03T07:20:13.193Z,99.90
2018-12-03T07:22:42.195Z,99.90
2018-12-03T07:25:11.913Z,99.90
2018-12-03T07:27:41.025Z,99.90
2018-12-03T07:30:16.794Z,99.90
2018-12-03T07:32:47.251Z,99.90
2018-12-03T07:35:16.209Z,99.90
2018-12-03T07:37:45.173Z,99.90
2018-12-03T07:40:19.752Z,99.90
2018-12-03T07:42:48.849Z,99.90
2018-12-03T07:45:19.851Z,99.90
2018-12-03T07:47:48.994Z,99.90
2018-12-03T07:52:47.375Z,99.90
2018-12-03T07:55:18.671Z,99.90
2018-12-03T07:57:58.294Z,99.90
2018-12-03T08:00:30.987Z,99.90
2018-12-03T08:07:57.479Z,99.90
2018-12-03T08:12:55.307Z,99.90
2018-12-03T08:15:24.302Z,99.90
2018-12-03T08:17:56.223Z,99.90
2018-12-03T08:20:27.413Z,99.90
2018-12-03T08:22:58.905Z,99.90
2018-12-03T08:25:27.874Z,99.90
2018-12-03T08:30:25.481Z,99.90
2018-12-03T08:32:54.428Z,99.90
2018-12-03T08:35:23.451Z,99.90
2018-12-03T08:37:52.402Z,99.90
2018-12-03T08:40:21.412Z,99.90
2018-12-03T08:42:52.572Z,99.90
2018-12-03T08:45:22.596Z,99.90
2018-12-03T08:47:52.014Z,99.90
2018-12-03T08:50:24.989Z,99.90
2018-12-03T08:52:54.700Z,99.60
2018-12-03T08:55:23.666Z,99.60
2018-12-03T08:57:52.634Z,99.40
2018-12-03T09:00:23.939Z,99.50
2018-12-03T09:02:57.047Z,99.40
2018-12-03T09:05:27.760Z,99.30
2018-12-03T09:07:56.765Z,99.50
2018-12-03T09:10:25.812Z,99.40
2018-12-03T09:12:54.928Z,99.30
2018-12-03T09:15:24.186Z,99.40
2018-12-03T09:17:53.168Z,99.20
2018-12-03T09:20:22.136Z,99.30
2018-12-03T09:22:51.087Z,99.30
2018-12-03T09:25:24.166Z,99.30
2018-12-03T09:27:53.197Z,99.30
2018-12-03T09:32:51.039Z,99.30
2018-12-03T09:37:48.600Z,99.00
2018-12-03T09:40:20.418Z,99.10
2018-12-03T09:42:49.532Z,99.10
2018-12-03T09:45:19.096Z,99.30
2018-12-03T09:47:48.704Z,99.10
2018-12-03T09:50:19.886Z,99.20
2018-12-03T09:52:49.172Z,99.20
2018-12-03T09:55:26.386Z,99.30
2018-12-03T09:57:59.510Z,99.50
2018-12-03T10:00:28.530Z,99.30
2018-12-03T10:02:59.307Z,99.20
2018-12-03T10:07:59.055Z,99.20
2018-12-03T10:10:28.103Z,99.20
2018-12-03T10:12:57.205Z,99.10
2018-12-03T10:15:28.151Z,99.20
2018-12-03T10:20:26.454Z,99.10
2018-12-03T10:22:55.457Z,99.20
2018-12-03T10:25:24.439Z,99.20
2018-12-03T10:28:00.151Z,98.80
2018-12-03T10:30:29.334Z,99.00
2018-12-03T10:32:58.355Z,98.60
2018-12-03T10:35:34.028Z,98.40
2018-12-03T10:38:08.872Z,98.60
2018-12-03T10:40:41.374Z,98.50
2018-12-03T10:43:11.381Z,98.40
2018-12-03T10:45:40.465Z,98.30
2018-12-03T10:48:09.520Z,98.40
2018-12-03T10:50:38.539Z,98.60
2018-12-03T10:53:07.577Z,98.40
2018-12-03T10:55:42.630Z,98.70
2018-12-03T11:00:47.152Z,98.50
2018-12-03T11:03:21.590Z,98.40
2018-12-03T11:05:56.234Z,98.40
2018-12-03T11:08:25.311Z,98.20
2018-12-03T11:10:55.410Z,98.10
2018-12-03T11:13:24.503Z,98.20
2018-12-03T11:15:53.553Z,98.10
2018-12-03T11:18:22.744Z,98.00
2018-12-03T11:20:51.799Z,98.10
2018-12-03T11:23:22.891Z,97.90
2018-12-03T11:25:52.323Z,97.80
2018-12-03T11:28:21.535Z,97.30
2018-12-03T11:30:55.021Z,97.80
2018-12-03T11:33:27.705Z,97.70
2018-12-03T11:35:58.336Z,97.60
2018-12-03T11:39:45.276Z,97.90
2018-12-03T11:42:14.506Z,97.80
2018-12-03T11:44:43.656Z,97.60
2018-12-03T11:47:19.283Z,97.80
2018-12-03T11:49:48.373Z,97.90
2018-12-03T11:52:17.386Z,97.80
2018-12-03T11:54:46.375Z,98.00
2018-12-03T11:57:15.374Z,97.80
2018-12-03T11:59:44.443Z,97.80
2018-12-03T12:02:13.458Z,98.00
2018-12-03T12:04:42.584Z,97.70
2018-12-03T12:07:11.679Z,97.70
2018-12-03T12:09:40.737Z,97.60
2018-12-03T12:12:09.894Z,97.50
2018-12-03T12:17:07.555Z,97.40
2018-12-03T12:19:36.523Z,97.30
2018-12-03T12:22:06.103Z,97.30
2018-12-03T12:24:36.355Z,97.30
2018-12-03T12:27:04.627Z,97.50
2018-12-03T12:29:33.652Z,97.40
2018-12-03T12:32:02.699Z,97.20
2018-12-03T12:34:32.142Z,97.40
2018-12-03T12:37:01.161Z,97.20
2018-12-03T12:39:30.152Z,97.10
2018-12-03T12:41:59.205Z,96.90
2018-12-03T12:44:28.245Z,96.40
2018-12-03T12:46:57.213Z,96.50
2018-12-03T12:49:26.178Z,96.80
2018-12-03T12:51:55.128Z,96.80
2018-12-03T12:54:24.193Z,96.90
2018-12-03T12:56:53.350Z,97.00
2018-12-03T12:59:22.447Z,96.70
2018-12-03T13:01:52.453Z,96.50
2018-12-03T13:04:21.537Z,96.80
2018-12-03T13:06:50.578Z,96.80
2018-12-03T13:09:19.732Z,96.70
2018-12-03T13:11:49.129Z,96.90
2018-12-03T13:14:18.202Z,96.50
2018-12-03T13:16:47.287Z,97.30
2018-12-03T13:19:16.341Z,97.10
2018-12-03T13:21:47.401Z,97.10
2018-12-03T13:24:16.464Z,97.20
2018-12-03T13:26:50.300Z,97.40
2018-12-03T13:29:19.363Z,97.20
2018-12-03T13:31:48.358Z,97.20
2018-12-03T13:34:17.343Z,96.60
2018-12-03T13:36:46.390Z,96.70
2018-12-03T13:39:15.797Z,97.10
2018-12-03T13:41:44.839Z,97.30
2018-12-03T13:44:13.816Z,97.10
2018-12-03T13:46:43.096Z,97.10
2018-12-03T13:49:12.122Z,97.20
2018-12-03T13:51:41.435Z,97.30
2018-12-03T13:54:10.466Z,97.40
2018-12-03T13:56:39.550Z,97.30
2018-12-03T13:59:08.787Z,96.70
2018-12-03T14:01:38.373Z,96.90
2018-12-03T14:04:11.582Z,97.00
2018-12-03T14:06:45.660Z,97.10
2018-12-03T14:10:25.922Z,97.20
2018-12-03T14:13:03.307Z,97.00
2018-12-03T14:17:47.429Z,97.00
2018-12-03T14:20:16.639Z,97.70
2018-12-03T14:22:50.427Z,97.70
2018-12-03T14:25:19.421Z,97.60
2018-12-03T14:27:48.370Z,97.50
2018-12-03T14:30:17.401Z,98.00
2018-12-03T14:32:46.461Z,98.10
2018-12-03T14:35:15.556Z,98.10
2018-12-03T14:37:44.570Z,98.20
2018-12-03T14:40:13.590Z,98.40
2018-12-03T14:42:42.623Z,98.70
2018-12-03T14:47:40.792Z,98.60
2018-12-03T14:50:10.761Z,98.70
2018-12-03T14:52:39.698Z,98.70
2018-12-03T14:55:08.870Z,98.80
2018-12-03T14:57:37.815Z,99.20
2018-12-03T15:00:09.775Z,99.20
2018-12-03T15:02:40.484Z,99.00
2018-12-03T15:05:09.784Z,99.30
2018-12-03T15:07:38.771Z,99.40
2018-12-03T15:10:09.115Z,99.70
2018-12-03T15:12:38.128Z,99.70
2018-12-03T15:15:09.157Z,99.70
2018-12-03T15:20:08.177Z,99.90
2018-12-03T15:22:37.218Z,99.90
2018-12-03T15:25:08.623Z,99.90
2018-12-03T15:27:37.508Z,99.90
2018-12-03T15:30:08.970Z,99.90
2018-12-03T15:32:38.395Z,99.90
2018-12-03T15:35:09.117Z,99.90
2018-12-03T15:37:38.219Z,99.90
2018-12-03T15:40:11.943Z,99.90
2018-12-03T15:42:41.021Z,99.90
2018-12-03T15:45:11.180Z,99.90
2018-12-03T15:47:40.227Z,99.90
2018-12-03T15:50:09.308Z,99.90
2018-12-03T15:52:38.534Z,99.90
2018-12-03T15:55:08.755Z,99.90
2018-12-03T15:57:38.052Z,99.90
2018-12-03T16:00:10.499Z,99.90
2018-12-03T16:02:40.350Z,99.90
2018-12-03T16:05:13.827Z,99.90
2018-12-03T16:07:43.191Z,99.90
2018-12-03T16:10:14.217Z,99.90
2018-12-03T16:12:45.180Z,99.90
2018-12-03T16:15:14.984Z,99.90
2018-12-03T16:17:44.806Z,99.90
2018-12-03T16:20:14.110Z,99.90
2018-12-03T16:22:43.510Z,99.90
2018-12-03T16:25:13.234Z,99.90
2018-12-03T16:27:42.884Z,99.90
2018-12-03T16:30:15.984Z,99.90
2018-12-03T16:32:45.869Z,99.90
2018-12-03T16:35:15.638Z,99.90
2018-12-03T16:37:45.439Z,99.90
2018-12-03T16:40:15.254Z,99.90
2018-12-03T16:42:45.169Z,99.90
2018-12-03T16:45:15.191Z,99.90
2018-12-03T16:47:45.075Z,99.90
2018-12-03T16:50:14.931Z,99.90
2018-12-03T16:52:44.829Z,99.90
2018-12-03T16:55:14.661Z,99.90
2018-12-03T16:57:44.836Z,99.90
2018-12-03T17:00:54.181Z,99.90
2018-12-03T17:03:24.169Z,99.90
2018-12-03T17:06:00.555Z,99.90
2018-12-03T17:08:30.431Z,99.90
2018-12-03T17:11:05.402Z,99.90
2018-12-03T17:13:42.930Z,99.90
2018-12-03T17:19:36.492Z,99.90
2018-12-03T17:22:34.869Z,99.90
2018-12-03T17:27:34.924Z,99.90
2018-12-03T17:30:05.921Z,99.90
2018-12-03T17:32:35.751Z,99.90
2018-12-03T17:35:06.677Z,99.90
2018-12-03T17:37:54.420Z,99.90
2018-12-03T17:40:29.238Z,99.90
2018-12-03T17:42:59.665Z,99.90
2018-12-03T17:47:58.917Z,99.90
2018-12-03T17:52:58.653Z,99.90
2018-12-03T17:57:59.790Z,99.90
2018-12-03T18:00:34.306Z,99.90
2018-12-03T18:03:05.207Z,99.90
2018-12-03T18:05:36.595Z,99.90
2018-12-03T18:08:07.181Z,99.90
2018-12-03T18:13:06.219Z,99.90
2018-12-03T18:15:36.587Z,99.90
2018-12-03T18:18:06.536Z,99.90
2018-12-03T18:20:37.275Z,99.90
2018-12-03T18:23:07.691Z,99.90
2018-12-03T18:25:37.598Z,99.90
2018-12-03T18:28:08.924Z,99.90
2018-12-03T18:33:09.743Z,99.90
2018-12-03T18:35:39.715Z,99.90
2018-12-03T18:40:38.832Z,99.90
2018-12-03T18:43:10.826Z,99.90
2018-12-03T18:45:40.702Z,99.90
2018-12-03T18:48:12.201Z,99.90
2018-12-03T18:50:44.600Z,99.90
2018-12-03T18:55:45.505Z,99.90
2018-12-03T18:58:19.066Z,99.90
2018-12-03T19:00:49.496Z,99.90
2018-12-03T19:03:19.376Z,99.90
2018-12-03T19:05:49.395Z,99.90
2018-12-03T19:08:20.011Z,99.90
2018-12-03T19:13:19.802Z,99.90
2018-12-03T19:15:56.171Z,99.90
2018-12-03T19:18:27.082Z,99.90
2018-12-03T19:23:26.236Z,99.90
2018-12-03T19:25:56.131Z,99.90
2018-12-03T19:28:26.664Z,99.90
2018-12-03T19:30:56.610Z,99.90
2018-12-03T19:33:31.099Z,99.90
2018-12-03T19:36:21.625Z,99.90
2018-12-03T19:38:51.466Z,99.90
2018-12-03T19:43:52.765Z,99.90
2018-12-03T19:46:22.646Z,99.90
2018-12-03T19:48:52.702Z,99.90
2018-12-03T19:51:22.887Z,99.90
2018-12-03T19:53:54.108Z,99.90
2018-12-03T19:56:24.340Z,99.90
2018-12-03T19:58:59.899Z,99.90
2018-12-03T20:01:29.905Z,99.90
2018-12-03T20:03:59.885Z,99.90
2018-12-03T20:06:31.037Z,99.90
2018-12-03T20:09:02.587Z,99.90
2018-12-03T20:11:33.555Z,99.90
2018-12-03T20:14:03.490Z,99.90
2018-12-03T20:16:36.154Z,99.90
2018-12-03T20:19:05.998Z,99.90
2018-12-03T20:21:36.824Z,99.90
2018-12-03T20:26:44.620Z,99.90
2018-12-03T20:29:22.553Z,99.90
2018-12-03T20:32:16.045Z,99.90
2018-12-03T20:35:00.106Z,99.90
2018-12-03T20:37:41.520Z,99.90
2018-12-03T20:40:21.956Z,99.90
2018-12-03T20:42:58.458Z,99.90
2018-12-03T20:48:01.910Z,99.90
2018-12-03T20:51:04.702Z,99.90
2018-12-03T20:53:39.829Z,99.90
2018-12-03T20:56:09.797Z,99.90
2018-12-03T20:58:39.670Z,99.90
2018-12-03T21:01:09.500Z,99.90
2018-12-03T21:03:39.892Z,99.90
2018-12-03T21:06:09.732Z,99.90
2018-12-03T21:11:08.968Z,99.90
2018-12-03T21:16:10.202Z,99.90
2018-12-03T21:18:40.154Z,99.90
2018-12-03T21:21:11.178Z,99.90
2018-12-03T21:23:41.007Z,99.90
2018-12-03T21:26:10.849Z,99.90
2018-12-03T21:28:40.892Z,99.90
2018-12-03T21:31:10.799Z,99.90
2018-12-03T21:33:40.639Z,99.90
2018-12-03T21:38:39.800Z,99.90
2018-12-03T21:41:09.666Z,99.90
2018-12-03T21:43:39.465Z,99.90
2018-12-03T21:48:38.563Z,99.90
2018-12-03T21:51:08.319Z,99.90
2018-12-03T21:53:38.100Z,99.90
2018-12-03T21:58:37.027Z,99.90
2018-12-03T22:01:06.773Z,99.90
2018-12-03T22:03:36.589Z,99.90
2018-12-03T22:06:07.533Z,99.90
2018-12-03T22:08:37.324Z,99.90
2018-12-03T22:11:07.237Z,99.90
2018-12-03T22:13:36.927Z,99.90
2018-12-03T22:16:06.627Z,99.90
2018-12-03T22:18:36.375Z,99.90
2018-12-03T22:21:06.108Z,99.90
2018-12-03T22:23:36.802Z,99.90
2018-12-03T22:26:06.431Z,99.90
2018-12-03T22:28:35.459Z,99.90
2018-12-03T22:31:04.474Z,99.90
2018-12-03T22:33:34.631Z,99.90
2018-12-03T22:36:03.971Z,99.90
2018-12-03T22:38:33.032Z,99.90
2018-12-03T22:41:01.999Z,99.90
2018-12-03T22:43:30.971Z,99.90
2018-12-03T22:45:59.909Z,99.90
2018-12-03T22:48:28.884Z,99.90
2018-12-03T22:50:57.798Z,99.90
2018-12-03T22:53:26.673Z,99.90
2018-12-03T22:55:55.599Z,99.90
2018-12-03T22:58:24.559Z,99.90
2018-12-03T23:03:37.242Z,99.90
2018-12-03T23:06:06.210Z,99.90
2018-12-03T23:08:35.175Z,99.90
2018-12-03T23:11:04.180Z,99.90
2018-12-03T23:13:33.173Z,99.90
2018-12-03T23:16:02.163Z,99.90
2018-12-03T23:18:31.105Z,99.90
2018-12-03T23:21:00.074Z,99.90
2018-12-03T23:23:28.984Z,99.90
2018-12-03T23:25:57.951Z,99.90
2018-12-03T23:28:26.857Z,99.90
2018-12-03T23:30:55.768Z,99.90
2018-12-03T23:33:24.711Z,99.90
2018-12-03T23:35:53.653Z,99.90
2018-12-03T23:38:22.670Z,99.90
2018-12-03T23:40:51.628Z,99.90
2018-12-03T23:43:20.579Z,99.90
2018-12-03T23:48:18.111Z,99.90
2018-12-03T23:50:47.181Z,99.90
2018-12-03T23:53:16.148Z,99.90
2018-12-03T23:55:45.097Z,99.90
2018-12-03T23:58:14.065Z,99.90
